createdAt,value
2019-05-12T04:30:50.714Z,70.50
2019-05-12T04:33:19.673Z,71.10
2019-05-12T04:35:55.373Z,71.30
2019-05-12T04:38:25.220Z,71.30
2019-05-12T04:40:59.888Z,71.00
2019-05-12T04:43:29.870Z,70.90
2019-05-12T04:46:05.103Z,70.00
2019-05-12T04:48:35.778Z,69.60
2019-05-12T04:51:05.056Z,68.80
2019-05-12T04:53:35.239Z,68.60
2019-05-12T04:56:10.852Z,68.00
2019-05-12T04:58:35.069Z,67.40
2019-05-12T05:01:09.423Z,67.40
2019-05-12T05:03:40.355Z,67.00
2019-05-12T05:06:08.327Z,67.10
2019-05-12T05:08:36.311Z,67.10
2019-05-12T05:11:10.059Z,65.50
2019-05-12T05:13:39.780Z,65.60
2019-05-12T05:16:07.912Z,65.60
2019-05-12T05:18:36.853Z,65.40
2019-05-12T05:21:04.857Z,66.80
2019-05-12T05:23:34.785Z,66.00
2019-05-12T05:26:03.359Z,65.10
2019-05-12T05:28:33.986Z,64.70
2019-05-12T05:31:03.558Z,64.20
2019-05-12T05:33:34.025Z,63.50
2019-05-12T05:36:03.543Z,63.70
2019-05-12T05:38:34.162Z,64.10
2019-05-12T05:41:05.923Z,64.00
2019-05-12T05:43:33.321Z,62.30
2019-05-12T05:46:13.784Z,61.90
2019-05-12T05:48:43.987Z,62.60
2019-05-12T05:51:13.764Z,62.10
2019-05-12T05:53:44.024Z,62.70
2019-05-12T05:56:11.555Z,61.10
2019-05-12T05:58:40.293Z,60.50
2019-05-12T06:01:09.227Z,60.90
2019-05-12T06:03:39.200Z,60.50
2019-05-12T06:06:12.159Z,60.20
2019-05-12T06:08:36.939Z,61.10
2019-05-12T06:11:08.419Z,60.50
2019-05-12T06:13:34.711Z,60.80
2019-05-12T06:16:11.623Z,60.30
2019-05-12T06:19:03.495Z,60.60
2019-05-12T06:21:36.286Z,60.40
2019-05-12T06:24:08.848Z,61.10
2019-05-12T06:26:54.526Z,60.10
2019-05-12T06:29:11.353Z,59.90
2019-05-12T06:31:45.735Z,58.80
2019-05-12T06:34:20.628Z,60.30
2019-05-12T06:36:44.138Z,59.80
2019-05-12T06:39:18.693Z,60.30
2019-05-12T06:41:44.247Z,59.30
2019-05-12T06:44:14.979Z,58.60
2019-05-12T06:46:44.272Z,58.60
2019-05-12T06:49:16.636Z,59.10
2019-05-12T06:51:44.325Z,58.60
2019-05-12T06:54:14.375Z,56.60
2019-05-12T06:56:43.484Z,54.80
2019-05-12T06:59:12.362Z,54.20
2019-05-12T07:01:40.880Z,54.20
2019-05-12T07:04:21.087Z,54.80
2019-05-12T07:06:49.752Z,56.00
2019-05-12T07:09:25.140Z,55.60
2019-05-12T07:11:53.523Z,55.00
2019-05-12T07:14:22.521Z,56.30
2019-05-12T07:16:55.151Z,56.50
2019-05-12T07:19:23.346Z,57.30
2019-05-12T07:21:56.620Z,54.80
2019-05-12T07:24:26.175Z,55.50
2019-05-12T07:27:04.314Z,54.70
2019-05-12T07:29:26.042Z,54.20
2019-05-12T07:31:56.806Z,54.20
2019-05-12T07:34:25.903Z,53.40
2019-05-12T07:36:55.248Z,54.70
2019-05-12T07:39:24.578Z,53.70
2019-05-12T07:42:03.642Z,52.10
2019-05-12T07:44:45.921Z,53.10
2019-05-12T07:47:13.908Z,52.50
2019-05-12T07:49:43.978Z,51.70
2019-05-12T07:52:17.426Z,51.20
2019-05-12T07:54:45.440Z,51.10
2019-05-12T07:57:17.315Z,51.90
2019-05-12T07:59:50.045Z,52.40
2019-05-12T08:02:25.537Z,52.00
2019-05-12T08:04:55.581Z,51.10
2019-05-12T08:07:29.884Z,51.70
2019-05-12T08:09:56.441Z,50.60
2019-05-12T08:12:27.809Z,51.30
2019-05-12T08:15:04.651Z,51.10
2019-05-12T08:17:30.287Z,51.00
2019-05-12T08:20:04.281Z,49.90
2019-05-12T08:22:31.207Z,48.70
2019-05-12T08:24:59.220Z,49.30
2019-05-12T08:27:27.219Z,50.10
2019-05-12T08:30:01.075Z,50.50
2019-05-12T08:32:27.263Z,51.40
2019-05-12T08:35:00.429Z,51.10
2019-05-12T08:37:29.367Z,48.30
2019-05-12T08:40:03.301Z,48.30
2019-05-12T08:42:27.023Z,46.40
2019-05-12T08:45:04.521Z,45.80
2019-05-12T08:47:35.592Z,46.20
2019-05-12T08:50:04.606Z,47.30
2019-05-12T08:52:37.095Z,46.50
2019-05-12T08:55:00.992Z,45.60
2019-05-12T08:57:32.574Z,45.40
2019-05-12T09:00:03.288Z,45.80
2019-05-12T09:02:31.488Z,46.40
2019-05-12T09:04:59.504Z,47.60
2019-05-12T09:07:39.836Z,47.90
2019-05-12T09:10:08.328Z,46.90
2019-05-12T09:12:36.413Z,44.50
2019-05-12T09:15:08.356Z,45.00
2019-05-12T09:17:49.082Z,45.20
2019-05-12T09:20:16.320Z,44.10
2019-05-12T09:22:52.823Z,43.10
2019-05-12T09:25:18.131Z,42.70
2019-05-12T09:27:49.508Z,43.50
2019-05-12T09:30:23.919Z,41.70
2019-05-12T09:35:43.824Z,41.70
2019-05-12T09:38:21.308Z,40.90
2019-05-12T09:40:43.808Z,40.70
2019-05-12T09:43:16.402Z,43.20
2019-05-12T09:45:51.635Z,43.90
2019-05-12T09:48:15.064Z,43.40
2019-05-12T09:50:46.172Z,42.10
2019-05-12T09:53:14.439Z,44.40
2019-05-12T09:55:43.755Z,45.50
2019-05-12T09:58:23.276Z,44.20
2019-05-12T10:01:03.566Z,45.80
2019-05-12T10:03:25.581Z,42.50
2019-05-12T10:05:58.349Z,40.10
2019-05-12T10:08:29.335Z,41.90
2019-05-12T10:11:05.115Z,41.90
2019-05-12T10:13:41.949Z,41.70
2019-05-12T10:16:15.154Z,40.20
2019-05-12T10:19:03.951Z,40.90
2019-05-12T10:21:32.179Z,40.60
2019-05-12T10:24:02.208Z,40.30
2019-05-12T10:26:29.917Z,40.50
2019-05-12T10:28:58.574Z,40.80
2019-05-12T10:31:29.592Z,41.50
2019-05-12T10:33:59.008Z,42.30
2019-05-12T10:36:27.165Z,42.10
2019-05-12T10:38:55.156Z,42.20
2019-05-12T10:41:23.671Z,42.10
2019-05-12T10:43:55.994Z,40.80
2019-05-12T10:46:26.963Z,39.40
2019-05-12T10:48:53.266Z,40.70
2019-05-12T10:51:20.943Z,40.90
2019-05-12T10:53:56.792Z,39.50
2019-05-12T10:56:18.616Z,40.20
2019-05-12T10:58:46.606Z,41.00
2019-05-12T11:01:14.625Z,42.00
2019-05-12T11:03:50.647Z,40.10
2019-05-12T11:06:12.285Z,39.60
2019-05-12T11:08:41.430Z,39.50
2019-05-12T11:11:10.139Z,38.70
2019-05-12T11:13:40.358Z,40.00
2019-05-12T11:16:07.886Z,39.20
2019-05-12T11:18:35.876Z,38.90
2019-05-12T11:21:03.944Z,39.00
2019-05-12T11:23:34.277Z,38.60
2019-05-12T11:26:03.727Z,38.20
2019-05-12T11:28:33.488Z,38.60
2019-05-12T11:31:01.109Z,39.20
2019-05-12T11:33:29.096Z,38.80
2019-05-12T11:35:57.080Z,38.20
2019-05-12T11:38:25.065Z,37.00
2019-05-12T11:40:53.797Z,38.30
2019-05-12T11:43:24.598Z,39.00
2019-05-12T11:45:53.454Z,37.60
2019-05-12T11:48:23.558Z,38.90
2019-05-12T11:50:51.470Z,39.00
2019-05-12T11:53:21.813Z,39.10
2019-05-12T11:55:49.275Z,37.90
2019-05-12T11:58:17.302Z,38.20
2019-05-12T12:00:53.309Z,36.50
2019-05-12T12:03:23.283Z,34.80
2019-05-12T12:05:53.585Z,34.70
2019-05-12T12:08:20.828Z,34.60
2019-05-12T12:10:49.394Z,36.80
2019-05-12T12:13:19.343Z,37.90
2019-05-12T12:15:47.265Z,39.40
2019-05-12T12:18:15.514Z,38.30
2019-05-12T12:20:44.276Z,40.70
2019-05-12T12:23:14.124Z,40.50
2019-05-12T12:25:42.965Z,40.20
2019-05-12T12:28:13.598Z,41.20
2019-05-12T12:30:41.880Z,39.80
2019-05-12T12:33:09.955Z,38.70
2019-05-12T12:35:37.947Z,38.50
2019-05-12T12:38:05.982Z,38.40
2019-05-12T12:40:34.160Z,38.40
2019-05-12T12:43:03.898Z,36.00
2019-05-12T12:45:36.651Z,37.10
2019-05-12T12:48:03.239Z,36.70
2019-05-12T12:50:34.021Z,37.30
2019-05-12T12:53:01.710Z,35.80
2019-05-12T12:55:29.712Z,35.50
2019-05-12T12:57:57.744Z,36.60
2019-05-12T13:00:32.223Z,36.30
2019-05-12T13:02:55.429Z,35.70
2019-05-12T13:05:23.987Z,35.90
2019-05-12T13:07:53.513Z,37.40
2019-05-12T13:10:21.866Z,35.60
2019-05-12T13:12:50.298Z,36.70
2019-05-12T13:15:21.080Z,35.70
2019-05-12T13:17:49.380Z,36.70
2019-05-12T13:20:18.155Z,37.30
2019-05-12T13:22:46.152Z,37.20
2019-05-12T13:25:14.648Z,36.60
2019-05-12T13:27:42.733Z,36.60
2019-05-12T13:30:18.530Z,35.60
2019-05-12T13:32:40.792Z,36.90
2019-05-12T13:35:09.810Z,37.20
2019-05-12T13:37:38.757Z,38.00
2019-05-12T13:40:06.935Z,38.00
2019-05-12T13:42:37.447Z,37.80
2019-05-12T13:45:08.725Z,37.90
2019-05-12T13:47:40.078Z,39.00
2019-05-12T13:50:15.504Z,39.20
2019-05-12T13:52:38.584Z,37.30
2019-05-12T13:55:07.800Z,36.90
2019-05-12T13:57:36.030Z,36.00
2019-05-12T14:00:10.695Z,36.50
2019-05-12T14:02:37.500Z,34.40
2019-05-12T14:05:11.073Z,35.10
2019-05-12T14:10:25.388Z,36.60
2019-05-12T14:12:54.411Z,37.40
2019-05-12T14:15:24.971Z,37.90
2019-05-12T14:17:54.168Z,38.80
2019-05-12T14:20:23.917Z,39.30
2019-05-12T14:22:53.803Z,40.50
2019-05-12T14:25:29.935Z,40.80
2019-05-12T14:27:53.612Z,40.50
2019-05-12T14:30:21.597Z,41.30
2019-05-12T14:32:55.096Z,41.20
2019-05-12T14:35:19.342Z,40.60
2019-05-12T14:37:47.602Z,41.20
2019-05-12T14:40:15.672Z,41.00
2019-05-12T14:42:44.340Z,43.70
2019-05-12T14:45:13.822Z,46.70
2019-05-12T14:47:43.703Z,49.10
2019-05-12T14:50:14.097Z,49.80
2019-05-12T14:52:43.989Z,49.70
2019-05-12T14:55:13.905Z,49.50
2019-05-12T14:57:41.596Z,49.70
2019-05-12T15:00:11.233Z,48.80
2019-05-12T15:02:39.894Z,49.70
2019-05-12T15:05:10.694Z,49.70
2019-05-12T15:07:42.654Z,50.00
2019-05-12T15:10:08.817Z,50.10
2019-05-12T15:12:37.121Z,50.10
2019-05-12T15:15:09.156Z,50.80
2019-05-12T15:17:36.694Z,50.90
2019-05-12T15:20:09.301Z,50.50
2019-05-12T15:22:35.244Z,50.50
2019-05-12T15:25:05.529Z,50.60
2019-05-12T15:27:42.339Z,50.90
2019-05-12T15:30:04.276Z,51.30
2019-05-12T15:32:34.110Z,51.20
2019-05-12T15:35:02.499Z,51.20
2019-05-12T15:37:36.989Z,51.20
2019-05-12T15:40:00.230Z,51.10
2019-05-12T15:42:28.307Z,50.90
2019-05-12T15:44:56.367Z,51.00
2019-05-12T15:47:29.488Z,50.60
2019-05-12T15:49:54.903Z,50.40
2019-05-12T15:52:24.677Z,49.70
2019-05-12T15:54:54.001Z,50.50
2019-05-12T15:57:24.420Z,50.00
2019-05-12T15:59:54.095Z,50.00
2019-05-12T16:02:23.565Z,50.00
2019-05-12T16:04:51.415Z,50.30
2019-05-12T16:07:19.496Z,50.40
2019-05-12T16:09:47.504Z,50.30
2019-05-12T16:12:19.971Z,49.90
2019-05-12T16:14:45.176Z,50.00
2019-05-12T16:17:16.843Z,49.80
2019-05-12T16:19:43.829Z,49.50
2019-05-12T16:22:13.778Z,50.00
2019-05-12T16:24:43.277Z,49.30
2019-05-12T16:27:11.393Z,49.50
2019-05-12T16:29:45.395Z,49.40
2019-05-12T16:32:22.362Z,49.30
2019-05-12T16:34:44.841Z,48.70
2019-05-12T16:37:08.954Z,47.90
2019-05-12T16:39:43.864Z,47.70
2019-05-12T16:42:10.377Z,47.10
2019-05-12T16:44:36.383Z,46.40
2019-05-12T16:47:04.463Z,47.50
2019-05-12T16:49:33.610Z,48.20
2019-05-12T16:52:03.637Z,48.30
2019-05-12T16:54:33.573Z,47.70
2019-05-12T16:57:06.469Z,48.00
2019-05-12T16:59:31.650Z,48.60
2019-05-12T17:02:05.524Z,49.00
2019-05-12T17:04:33.275Z,48.50
2019-05-12T17:07:00.935Z,48.70
2019-05-12T17:09:29.562Z,49.10
2019-05-12T17:11:57.681Z,49.10
2019-05-12T17:14:28.635Z,49.60
2019-05-12T17:16:56.159Z,49.80
2019-05-12T17:19:24.300Z,49.80
2019-05-12T17:21:58.033Z,49.30
2019-05-12T17:24:23.981Z,48.90
2019-05-12T17:26:52.022Z,48.90
2019-05-12T17:29:20.028Z,50.10
2019-05-12T17:31:48.119Z,50.60
2019-05-12T17:34:16.194Z,49.80
2019-05-12T17:36:44.875Z,49.80
2019-05-12T17:39:13.902Z,48.60
2019-05-12T17:41:45.013Z,48.60
2019-05-12T17:44:13.576Z,49.00
2019-05-12T17:46:43.905Z,49.70
2019-05-12T17:49:15.698Z,49.20
2019-05-12T17:51:40.994Z,49.50
2019-05-12T17:54:28.333Z,49.80
2019-05-12T17:56:56.916Z,49.40
2019-05-12T17:59:29.210Z,48.90
2019-05-12T18:01:57.452Z,49.00
2019-05-12T18:04:30.372Z,49.20
2019-05-12T18:06:57.258Z,48.50
2019-05-12T18:09:30.461Z,48.90
2019-05-12T18:11:56.400Z,48.50
2019-05-12T18:14:27.624Z,49.30
2019-05-12T18:17:02.499Z,49.60
2019-05-12T18:19:24.308Z,50.00
2019-05-12T18:22:00.114Z,50.20
2019-05-12T18:24:24.091Z,50.10
2019-05-12T18:27:00.256Z,50.40
2019-05-12T18:29:25.249Z,50.00
2019-05-12T18:31:55.501Z,50.30
2019-05-12T18:34:25.315Z,50.30
2019-05-12T18:36:58.124Z,49.50
2019-05-12T18:39:24.290Z,50.20
2019-05-12T18:41:54.161Z,50.20
2019-05-12T18:44:29.356Z,50.10
2019-05-12T18:46:53.922Z,51.50
2019-05-12T18:49:23.855Z,52.40
2019-05-12T18:51:55.354Z,51.00
2019-05-12T18:54:24.080Z,50.50
2019-05-12T18:57:01.932Z,50.80
2019-05-12T18:59:21.683Z,51.30
2019-05-12T19:01:50.118Z,52.80
2019-05-12T19:04:18.650Z,53.20
2019-05-12T19:06:46.936Z,54.30
2019-05-12T19:09:15.205Z,55.20
2019-05-12T19:11:46.527Z,56.20
2019-05-12T19:14:13.574Z,56.50
2019-05-12T19:16:43.593Z,57.20
2019-05-12T19:19:16.454Z,57.00
2019-05-12T19:21:43.805Z,56.80
2019-05-12T19:24:15.214Z,57.80
2019-05-12T19:26:40.924Z,57.60
2019-05-12T19:29:09.169Z,57.60
2019-05-12T19:31:45.307Z,57.90
2019-05-12T19:34:18.292Z,58.10
2019-05-12T19:36:44.888Z,58.20
2019-05-12T19:39:09.759Z,57.90
2019-05-12T19:41:39.833Z,57.90
2019-05-12T19:44:08.038Z,58.20
2019-05-12T19:46:39.874Z,58.10
2019-05-12T19:49:05.774Z,58.80
2019-05-12T19:51:34.563Z,59.20
2019-05-12T19:54:03.575Z,59.50
2019-05-12T19:56:35.752Z,60.10
2019-05-12T19:59:01.405Z,60.20
2019-05-12T20:01:32.727Z,60.20
2019-05-12T20:04:03.597Z,60.20
2019-05-12T20:06:33.533Z,60.10
2019-05-12T20:09:08.227Z,59.80
2019-05-12T20:11:31.519Z,60.10
2019-05-12T20:13:59.711Z,60.30
2019-05-12T20:16:30.337Z,60.80
2019-05-12T20:18:58.038Z,61.00
2019-05-12T20:21:28.284Z,61.30
2019-05-12T20:23:55.870Z,61.40
2019-05-12T20:26:23.864Z,61.80
2019-05-12T20:28:53.370Z,63.10
2019-05-12T20:31:26.853Z,63.50
2019-05-12T20:33:57.286Z,63.90
2019-05-12T20:36:26.077Z,63.80
2019-05-12T20:38:53.885Z,63.40
2019-05-12T20:41:26.089Z,63.30
2019-05-12T20:43:51.115Z,64.00
2019-05-12T20:46:25.878Z,64.20
2019-05-12T20:48:53.657Z,64.30
2019-05-12T20:51:24.447Z,64.80
2019-05-12T20:53:52.317Z,65.10
2019-05-12T20:56:22.110Z,65.70
2019-05-12T20:58:50.006Z,64.70
2019-05-12T21:01:20.134Z,65.30
2019-05-12T21:03:50.916Z,66.00
2019-05-12T21:06:18.599Z,64.40
2019-05-12T21:08:53.801Z,64.80
2019-05-12T21:11:16.854Z,65.10
2019-05-12T21:13:44.952Z,65.00
2019-05-12T21:16:17.697Z,65.20
2019-05-12T21:18:48.035Z,65.20
2019-05-12T21:21:14.281Z,65.80
2019-05-12T21:23:45.776Z,64.60
2019-05-12T21:26:11.750Z,65.10
2019-05-12T21:28:46.114Z,64.20
2019-05-12T21:31:09.424Z,62.50
2019-05-12T21:33:41.473Z,63.70
2019-05-12T21:36:07.116Z,64.90
2019-05-12T21:38:35.098Z,65.70
2019-05-12T21:41:07.725Z,66.20
2019-05-12T21:43:32.773Z,66.80
2019-05-12T21:46:01.157Z,67.10
2019-05-12T21:48:30.549Z,67.10
2019-05-12T21:50:58.553Z,67.60
2019-05-12T21:53:26.602Z,66.70
2019-05-12T21:56:03.660Z,66.80
2019-05-12T21:58:24.298Z,67.30
2019-05-12T22:01:13.597Z,67.90
2019-05-12T22:03:45.994Z,68.40
2019-05-12T22:06:19.002Z,68.60
2019-05-12T22:08:41.181Z,69.00
2019-05-12T22:11:11.582Z,68.70
2019-05-12T22:13:38.856Z,69.10
2019-05-12T22:16:06.857Z,69.40
2019-05-12T22:18:34.889Z,69.40
2019-05-12T22:21:06.513Z,69.70
2019-05-12T22:23:33.729Z,70.50
2019-05-12T22:26:04.152Z,69.60
2019-05-12T22:28:34.046Z,70.10
2019-05-12T22:31:01.406Z,71.10
2019-05-12T22:33:29.489Z,69.20
2019-05-12T22:36:05.135Z,69.20
2019-05-12T22:38:27.333Z,69.80
2019-05-12T22:40:59.430Z,69.80
2019-05-12T22:43:25.037Z,70.10
2019-05-12T22:45:54.694Z,70.70
2019-05-12T22:48:22.757Z,71.50
2019-05-12T22:50:50.778Z,72.40
2019-05-12T22:53:19.284Z,72.70
2019-05-12T22:55:48.476Z,73.30
2019-05-12T22:58:21.223Z,73.20
